createdAt,value
2023-04-02T00:00:44.575Z,100990.0
2023-04-02T00:05:44.566Z,101010.0
2023-04-02T00:10:44.597Z,101010.0
2023-04-02T00:15:44.590Z,101020.0
2023-04-02T00:20:44.592Z,101030.0
2023-04-02T00:25:44.583Z,101040.0
2023-04-02T00:30:44.588Z,101050.0
2023-04-02T00:35:44.602Z,101050.0
2023-04-02T00:40:44.652Z,101060.0
2023-04-02T00:45:44.625Z,101060.0
2023-04-02T00:50:44.594Z,101070.0
2023-04-02T00:55:44.592Z,101090.0
2023-04-02T01:00:44.704Z,101090.0
2023-04-02T01:05:44.600Z,101100.0
2023-04-02T01:10:44.612Z,101110.0
2023-04-02T01:15:44.655Z,101120.0
2023-04-02T01:20:44.614Z,101120.0
2023-04-02T01:25:44.617Z,101130.0
2023-04-02T01:30:44.602Z,101140.0
2023-04-02T01:35:44.629Z,101140.0
2023-04-02T01:40:44.616Z,101160.0
2023-04-02T01:45:44.613Z,101170.0
2023-04-02T01:50:44.620Z,101180.0
2023-04-02T01:55:44.621Z,101180.0
2023-04-02T02:00:44.710Z,101190.0
2023-04-02T02:05:44.628Z,101210.0
2023-04-02T02:10:44.623Z,101210.0
2023-04-02T02:15:44.630Z,101220.0
2023-04-02T02:20:44.622Z,101240.0
2023-04-02T02:25:44.637Z,101250.0
2023-04-02T02:30:44.666Z,101260.0
2023-04-02T02:35:44.657Z,101270.0
2023-04-02T02:40:44.652Z,101280.0
2023-04-02T02:45:44.669Z,101280.0
2023-04-02T02:50:44.640Z,101290.0
2023-04-02T02:55:44.646Z,101300.0
2023-04-02T03:00:44.663Z,101310.0
2023-04-02T03:05:44.652Z,101320.0
2023-04-02T03:10:44.651Z,101330.0
2023-04-02T03:15:44.688Z,101330.0
2023-04-02T03:20:44.656Z,101350.0
2023-04-02T03:25:44.665Z,101350.0
2023-04-02T03:30:44.678Z,101380.0
2023-04-02T03:35:44.844Z,101380.0
2023-04-02T03:40:44.669Z,101390.0
2023-04-02T03:45:44.676Z,101400.0
2023-04-02T03:50:44.671Z,101420.0
2023-04-02T03:55:44.700Z,101430.0
2023-04-02T04:00:44.680Z,101440.0
2023-04-02T04:05:44.675Z,101450.0
2023-04-02T04:10:44.714Z,101460.0
2023-04-02T04:15:44.685Z,101470.0
2023-04-02T04:20:44.681Z,101480.0
2023-04-02T04:25:44.685Z,101490.0
2023-04-02T04:30:44.693Z,101510.0
2023-04-02T04:35:44.792Z,101520.0
2023-04-02T04:40:44.702Z,101530.0
2023-04-02T04:45:44.740Z,101530.0
2023-04-02T04:50:44.708Z,101550.0
2023-04-02T04:55:44.610Z,101560.0
2023-04-02T05:00:44.628Z,101590.0
2023-04-02T05:05:44.610Z,101590.0
2023-04-02T05:10:44.621Z,101600.0
2023-04-02T05:15:44.734Z,101610.0
2023-04-02T05:20:44.726Z,101620.0
2023-04-02T05:25:44.621Z,101630.0
2023-04-02T05:30:44.735Z,101640.0
2023-04-02T05:35:44.695Z,101640.0
2023-04-02T05:40:44.625Z,101650.0
2023-04-02T05:45:44.652Z,101660.0
2023-04-02T05:50:44.634Z,101670.0
2023-04-02T05:55:44.715Z,101670.0
2023-04-02T06:00:44.633Z,101680.0
2023-04-02T06:05:44.642Z,101690.0
2023-04-02T06:10:44.659Z,101720.0
2023-04-02T06:15:47.206Z,101730.0
2023-04-02T06:20:44.659Z,101750.0
2023-04-02T06:25:44.678Z,101760.0
2023-04-02T06:30:44.666Z,101760.0
2023-04-02T06:35:44.690Z,101770.0
2023-04-02T06:40:44.665Z,101780.0
2023-04-02T06:45:44.665Z,101790.0
2023-04-02T06:50:44.664Z,101800.0
2023-04-02T06:55:44.710Z,101820.0
2023-04-02T07:00:44.749Z,101820.0
2023-04-02T07:05:44.758Z,101840.0
2023-04-02T07:10:44.670Z,101860.0
2023-04-02T07:15:44.697Z,101870.0
2023-04-02T07:20:44.833Z,101890.0
2023-04-02T07:25:44.810Z,101890.0
2023-04-02T07:30:44.684Z,101890.0
2023-04-02T07:35:44.731Z,101910.0
2023-04-02T07:40:44.685Z,101910.0
2023-04-02T07:45:44.683Z,101920.0
2023-04-02T07:50:44.694Z,101930.0
2023-04-02T07:55:44.692Z,101940.0
2023-04-02T08:00:45.281Z,101940.0
2023-04-02T08:05:44.715Z,101950.0
2023-04-02T08:10:44.700Z,101960.0
2023-04-02T08:15:44.730Z,101970.0
2023-04-02T08:20:44.723Z,101990.0
2023-04-02T08:25:44.723Z,102000.0
2023-04-02T08:30:44.748Z,102000.0
2023-04-02T08:35:44.750Z,102010.0
2023-04-02T08:40:44.785Z,102020.0
2023-04-02T08:45:44.766Z,102040.0
2023-04-02T08:50:44.724Z,102040.0
2023-04-02T08:55:44.729Z,102070.0
2023-04-02T09:00:44.739Z,102090.0
2023-04-02T09:10:44.718Z,102100.0
2023-04-02T09:15:44.886Z,102100.0
2023-04-02T09:20:44.767Z,102110.0
2023-04-02T09:25:48.510Z,102110.0
2023-04-02T09:30:44.744Z,102110.0
2023-04-02T09:35:44.876Z,102120.0
2023-04-02T09:40:44.754Z,102130.0
2023-04-02T09:45:44.752Z,102150.0
2023-04-02T09:50:44.935Z,102150.0
2023-04-02T09:55:44.758Z,102170.0
2023-04-02T10:00:44.886Z,102180.0
2023-04-02T10:05:45.046Z,102170.0
2023-04-02T10:10:44.943Z,102190.0
2023-04-02T10:15:44.869Z,102210.0
2023-04-02T10:20:51.190Z,102210.0
2023-04-02T10:25:44.872Z,102220.0
2023-04-02T10:30:45.099Z,102230.0
2023-04-02T10:35:44.899Z,102240.0
2023-04-02T10:40:44.919Z,102240.0
2023-04-02T10:45:44.900Z,102240.0
2023-04-02T10:50:44.923Z,102250.0
2023-04-02T10:55:44.926Z,102250.0
2023-04-02T11:00:44.890Z,102250.0
2023-04-02T11:05:44.894Z,102260.0
2023-04-02T11:10:44.902Z,102260.0
2023-04-02T11:15:44.930Z,102290.0
2023-04-02T11:20:45.032Z,102290.0
2023-04-02T11:25:44.911Z,102290.0
2023-04-02T11:30:44.914Z,102290.0
2023-04-02T11:35:45.022Z,102300.0
2023-04-02T11:40:44.972Z,102300.0
2023-04-02T11:45:53.458Z,102320.0
2023-04-02T11:50:44.950Z,102330.0
2023-04-02T11:55:44.983Z,102340.0
2023-04-02T12:00:44.939Z,102350.0
2023-04-02T12:05:45.045Z,102350.0
2023-04-02T12:10:44.929Z,102360.0
2023-04-02T12:15:45.278Z,102360.0
2023-04-02T12:20:44.936Z,102350.0
2023-04-02T12:25:44.938Z,102370.0
2023-04-02T12:30:44.944Z,102370.0
2023-04-02T12:35:44.979Z,102370.0
2023-04-02T12:40:45.051Z,102390.0
2023-04-02T12:45:44.966Z,102380.0
2023-04-02T12:50:44.980Z,102370.0
2023-04-02T12:55:45.038Z,102380.0
2023-04-02T13:00:44.960Z,102380.0
2023-04-02T13:05:44.972Z,102390.0
2023-04-02T13:10:44.987Z,102370.0
2023-04-02T13:15:44.999Z,102370.0
2023-04-02T13:25:46.273Z,102380.0
2023-04-02T13:30:46.283Z,102370.0
2023-04-02T13:35:46.336Z,102370.0
2023-04-02T13:40:46.295Z,102370.0
2023-04-02T13:45:46.326Z,102380.0
2023-04-02T13:50:46.378Z,102380.0
2023-04-02T13:55:46.246Z,102370.0
2023-04-02T14:00:46.393Z,102380.0
2023-04-02T14:05:46.515Z,102400.0
2023-04-02T14:10:46.554Z,102400.0
2023-04-02T14:15:46.219Z,102400.0
2023-04-02T14:20:46.220Z,102410.0
2023-04-02T14:25:46.332Z,102400.0
2023-04-02T14:30:46.253Z,102410.0
2023-04-02T14:35:46.390Z,102410.0
2023-04-02T14:40:46.285Z,102410.0
2023-04-02T14:45:46.246Z,102420.0
2023-04-02T14:50:46.230Z,102420.0
2023-04-02T14:55:46.233Z,102420.0
2023-04-02T15:00:46.236Z,102420.0
2023-04-02T15:05:46.249Z,102420.0
2023-04-02T15:10:46.244Z,102430.0
2023-04-02T15:15:46.320Z,102440.0
2023-04-02T15:20:46.239Z,102440.0
2023-04-02T15:25:46.257Z,102440.0
2023-04-02T15:30:46.255Z,102440.0
2023-04-02T15:35:46.351Z,102440.0
2023-04-02T15:40:46.259Z,102440.0
2023-04-02T15:45:46.298Z,102450.0
2023-04-02T15:50:46.288Z,102460.0
2023-04-02T15:55:46.269Z,102460.0
2023-04-02T16:00:46.318Z,102460.0
2023-04-02T16:05:46.281Z,102460.0
2023-04-02T16:10:46.401Z,102470.0
2023-04-02T16:15:46.303Z,102490.0
2023-04-02T16:20:46.284Z,102500.0
2023-04-02T16:25:46.291Z,102510.0
2023-04-02T16:30:46.343Z,102500.0
2023-04-02T16:35:46.347Z,102510.0
2023-04-02T16:40:54.309Z,102520.0
2023-04-02T16:45:46.318Z,102530.0
2023-04-02T16:50:46.294Z,102540.0
2023-04-02T16:55:46.314Z,102540.0
2023-04-02T17:00:46.410Z,102550.0
2023-04-02T17:05:46.405Z,102560.0
2023-04-02T17:10:46.430Z,102570.0
2023-04-02T17:15:46.435Z,102580.0
2023-04-02T17:20:46.414Z,102580.0
2023-04-02T17:25:46.438Z,102590.0
2023-04-02T17:30:46.408Z,102600.0
2023-04-02T17:35:46.505Z,102600.0
2023-04-02T17:40:46.420Z,102620.0
2023-04-02T17:45:46.467Z,102630.0
2023-04-02T17:50:46.424Z,102630.0
2023-04-02T17:55:46.422Z,102640.0
2023-04-02T18:00:46.510Z,102650.0
2023-04-02T18:05:46.425Z,102650.0
2023-04-02T18:10:46.428Z,102660.0
2023-04-02T18:15:46.435Z,102660.0
2023-04-02T18:20:46.436Z,102660.0
2023-04-02T18:25:46.441Z,102670.0
2023-04-02T18:30:46.435Z,102680.0
2023-04-02T18:35:46.496Z,102690.0
2023-04-02T18:40:46.442Z,102690.0
2023-04-02T18:45:46.518Z,102710.0
2023-04-02T18:50:46.440Z,102710.0
2023-04-02T18:55:46.461Z,102710.0
2023-04-02T19:00:46.472Z,102720.0
2023-04-02T19:05:46.455Z,102720.0
2023-04-02T19:10:46.447Z,102730.0
2023-04-02T19:15:46.748Z,102750.0
2023-04-02T19:20:46.838Z,102740.0
2023-04-02T19:25:46.461Z,102760.0
2023-04-02T19:30:46.459Z,102770.0
2023-04-02T19:35:46.514Z,102770.0
2023-04-02T19:40:46.473Z,102780.0
2023-04-02T19:45:46.461Z,102770.0
2023-04-02T19:50:46.464Z,102780.0
2023-04-02T19:55:46.476Z,102790.0
2023-04-02T20:00:46.569Z,102790.0
2023-04-02T20:05:46.466Z,102800.0
2023-04-02T20:10:46.375Z,102790.0
2023-04-02T20:15:46.373Z,102800.0
2023-04-02T20:20:46.378Z,102790.0
2023-04-02T20:25:46.384Z,102790.0
2023-04-02T20:30:46.401Z,102810.0
2023-04-02T20:35:46.455Z,102820.0
2023-04-02T20:40:46.399Z,102820.0
2023-04-02T20:45:46.415Z,102830.0
2023-04-02T20:50:46.399Z,102830.0
2023-04-02T20:55:46.400Z,102840.0
2023-04-02T21:00:46.498Z,102840.0
2023-04-02T21:05:46.530Z,102850.0
2023-04-02T21:10:46.496Z,102850.0
2023-04-02T21:15:46.476Z,102860.0
2023-04-02T21:20:46.503Z,102870.0
2023-04-02T21:25:46.502Z,102870.0
2023-04-02T21:30:46.497Z,102870.0
2023-04-02T21:35:46.511Z,102880.0
2023-04-02T21:40:46.500Z,102880.0
2023-04-02T21:45:46.503Z,102870.0
2023-04-02T21:50:46.521Z,102880.0
2023-04-02T21:55:46.506Z,102880.0
2023-04-02T22:00:46.538Z,102880.0
2023-04-02T22:05:46.511Z,102880.0
2023-04-02T22:10:46.511Z,102900.0
2023-04-02T22:15:46.518Z,102890.0
2023-04-02T22:20:46.542Z,102900.0
2023-04-02T22:25:46.517Z,102910.0
2023-04-02T22:30:46.571Z,102910.0
2023-04-02T22:35:46.595Z,102910.0
2023-04-02T22:40:46.525Z,102910.0
2023-04-02T22:45:46.580Z,102910.0
2023-04-02T22:50:46.538Z,102920.0
2023-04-02T22:55:46.709Z,102910.0
2023-04-02T23:00:46.556Z,102910.0
2023-04-02T23:05:46.536Z,102920.0
2023-04-02T23:10:46.536Z,102920.0
2023-04-02T23:15:46.601Z,102920.0
2023-04-02T23:20:46.552Z,102930.0
2023-04-02T23:25:46.543Z,102920.0
2023-04-02T23:30:46.543Z,102920.0
2023-04-02T23:35:46.575Z,102930.0
2023-04-02T23:40:46.552Z,102930.0
2023-04-02T23:45:46.566Z,102920.0
2023-04-02T23:50:46.556Z,102930.0
2023-04-02T23:55:46.571Z,102940.0
